sensor_id;sensor_type;location;lat;lon;timestamp;temperature;humidity
32107;DHT22;18622;51.998;10.440;2023-08-12T03:31:00;20.00;99.90
32107;DHT22;18622;51.998;10.440;2023-08-12T03:33:28;20.10;99.90
32107;DHT22;18622;51.998;10.440;2023-08-12T03:35:55;20.10;99.90
32107;DHT22;18622;51.998;10.440;2023-08-12T03:38:23;20.10;99.90
32107;DHT22;18622;51.998;10.440;2023-08-12T03:40:51;20.10;99.90
32107;DHT22;18622;51.998;10.440;2023-08-12T03:43:19;20.10;99.90
32107;DHT22;18622;51.998;10.440;2023-08-12T03:45:47;20.10;99.90
32107;DHT22;18622;51.998;10.440;2023-08-12T03:48:15;20.20;99.90
32107;DHT22;18622;51.998;10.440;2023-08-12T03:50:43;20.20;99.90
32107;DHT22;18622;51.998;10.440;2023-08-12T03:53:12;20.20;99.90
32107;DHT22;18622;51.998;10.440;2023-08-12T03:55:41;20.20;99.90
32107;DHT22;18622;51.998;10.440;2023-08-12T03:58:09;20.20;99.90
32107;DHT22;18622;51.998;10.440;2023-08-12T04:00:41;20.20;99.90
32107;DHT22;18622;51.998;10.440;2023-08-12T04:03:11;20.20;99.90
32107;DHT22;18622;51.998;10.440;2023-08-12T04:05:50;20.20;99.90
32107;DHT22;18622;51.998;10.440;2023-08-12T04:08:23;20.30;99.90
32107;DHT22;18622;51.998;10.440;2023-08-12T04:10:52;20.30;99.90
32107;DHT22;18622;51.998;10.440;2023-08-12T04:13:20;20.30;99.90
32107;DHT22;18622;51.998;10.440;2023-08-12T04:15:51;20.30;99.90
32107;DHT22;18622;51.998;10.440;2023-08-12T04:18:20;20.40;99.90
32107;DHT22;18622;51.998;10.440;2023-08-12T04:20:49;20.50;99.90
32107;DHT22;18622;51.998;10.440;2023-08-12T04:23:18;20.50;99.90
32107;DHT22;18622;51.998;10.440;2023-08-12T04:25:47;20.60;99.90
32107;DHT22;18622;51.998;10.440;2023-08-12T04:28:15;20.90;99.90
32107;DHT22;18622;51.998;10.440;2023-08-12T04:30:46;21.30;99.90
32107;DHT22;18622;51.998;10.440;2023-08-12T04:33:14;21.70;99.90
32107;DHT22;18622;51.998;10.440;2023-08-12T04:35:42;22.10;99.90
32107;DHT22;18622;51.998;10.440;2023-08-12T04:38:10;22.40;99.90
32107;DHT22;18622;51.998;10.440;2023-08-12T04:40:39;22.60;99.90
32107;DHT22;18622;51.998;10.440;2023-08-12T04:43:08;22.70;99.90
32107;DHT22;18622;51.998;10.440;2023-08-12T04:45:36;22.80;99.90
32107;DHT22;18622;51.998;10.440;2023-08-12T04:48:05;22.80;99.90
32107;DHT22;18622;51.998;10.440;2023-08-12T04:50:32;22.80;99.90
32107;DHT22;18622;51.998;10.440;2023-08-12T04:53:01;22.80;99.90
32107;DHT22;18622;51.998;10.440;2023-08-12T04:55:29;22.70;99.90
32107;DHT22;18622;51.998;10.440;2023-08-12T04:57:57;22.60;99.90
32107;DHT22;18622;51.998;10.440;2023-08-12T05:00:25;22.30;99.90
32107;DHT22;18622;51.998;10.440;2023-08-12T05:02:52;22.00;99.90
32107;DHT22;18622;51.998;10.440;2023-08-12T05:05:20;21.80;99.90
32107;DHT22;18622;51.998;10.440;2023-08-12T05:07:48;21.60;99.90
32107;DHT22;18622;51.998;10.440;2023-08-12T05:10:16;21.30;99.90
32107;DHT22;18622;51.998;10.440;2023-08-12T05:12:44;21.00;99.90
32107;DHT22;18622;51.998;10.440;2023-08-12T05:15:14;20.80;99.90
32107;DHT22;18622;51.998;10.440;2023-08-12T05:17:42;20.60;99.90
32107;DHT22;18622;51.998;10.440;2023-08-12T05:20:10;20.40;99.90
32107;DHT22;18622;51.998;10.440;2023-08-12T05:22:37;20.30;99.90
32107;DHT22;18622;51.998;10.440;2023-08-12T05:25:05;20.20;99.90
32107;DHT22;18622;51.998;10.440;2023-08-12T05:27:34;20.10;99.90
32107;DHT22;18622;51.998;10.440;2023-08-12T05:30:01;20.00;99.90
32107;DHT22;18622;51.998;10.440;2023-08-12T05:32:29;20.00;99.90
32107;DHT22;18622;51.998;10.440;2023-08-12T05:34:57;20.00;99.90
32107;DHT22;18622;51.998;10.440;2023-08-12T05:37:25;20.00;99.90
32107;DHT22;18622;51.998;10.440;2023-08-12T05:39:53;20.10;99.90
32107;DHT22;18622;51.998;10.440;2023-08-12T05:42:21;20.10;99.90
32107;DHT22;18622;51.998;10.440;2023-08-12T05:44:48;20.20;99.90
32107;DHT22;18622;51.998;10.440;2023-08-12T05:47:16;20.30;99.90
32107;DHT22;18622;51.998;10.440;2023-08-12T05:49:44;20.40;99.90
32107;DHT22;18622;51.998;10.440;2023-08-12T05:52:12;20.50;99.90
32107;DHT22;18622;51.998;10.440;2023-08-12T05:54:40;20.80;99.90
32107;DHT22;18622;51.998;10.440;2023-08-12T05:57:08;21.00;99.90
32107;DHT22;18622;51.998;10.440;2023-08-12T05:59:36;21.20;99.90
32107;DHT22;18622;51.998;10.440;2023-08-12T06:02:04;21.40;99.90
32107;DHT22;18622;51.998;10.440;2023-08-12T06:04:32;21.50;99.90
32107;DHT22;18622;51.998;10.440;2023-08-12T06:06:59;21.50;99.90
32107;DHT22;18622;51.998;10.440;2023-08-12T06:09:27;21.50;99.90
32107;DHT22;18622;51.998;10.440;2023-08-12T06:11:55;21.40;99.90
32107;DHT22;18622;51.998;10.440;2023-08-12T06:14:23;21.30;99.90
32107;DHT22;18622;51.998;10.440;2023-08-12T06:16:51;21.20;99.90
32107;DHT22;18622;51.998;10.440;2023-08-12T06:19:18;21.00;99.90
32107;DHT22;18622;51.998;10.440;2023-08-12T06:21:46;21.00;99.90
32107;DHT22;18622;51.998;10.440;2023-08-12T06:24:14;21.00;99.90
32107;DHT22;18622;51.998;10.440;2023-08-12T06:26:42;21.00;99.90
32107;DHT22;18622;51.998;10.440;2023-08-12T06:29:09;21.00;99.90
32107;DHT22;18622;51.998;10.440;2023-08-12T06:31:37;21.10;99.90
32107;DHT22;18622;51.998;10.440;2023-08-12T06:34:05;21.30;99.90
32107;DHT22;18622;51.998;10.440;2023-08-12T06:36:33;21.50;99.90
32107;DHT22;18622;51.998;10.440;2023-08-12T06:39:01;21.70;99.90
32107;DHT22;18622;51.998;10.440;2023-08-12T06:41:30;21.90;99.90
32107;DHT22;18622;51.998;10.440;2023-08-12T06:43:57;22.10;99.90
32107;DHT22;18622;51.998;10.440;2023-08-12T06:46:25;22.20;99.90
32107;DHT22;18622;51.998;10.440;2023-08-12T06:48:53;22.30;99.90
32107;DHT22;18622;51.998;10.440;2023-08-12T06:51:21;22.40;99.90
32107;DHT22;18622;51.998;10.440;2023-08-12T06:53:49;22.50;99.90
32107;DHT22;18622;51.998;10.440;2023-08-12T06:56:16;22.50;99.90
32107;DHT22;18622;51.998;10.440;2023-08-12T06:58:44;22.40;99.90
32107;DHT22;18622;51.998;10.440;2023-08-12T07:01:12;22.40;99.90
32107;DHT22;18622;51.998;10.440;2023-08-12T07:03:40;22.40;99.90
32107;DHT22;18622;51.998;10.440;2023-08-12T07:06:08;22.40;99.90
32107;DHT22;18622;51.998;10.440;2023-08-12T07:08:35;22.40;99.90
32107;DHT22;18622;51.998;10.440;2023-08-12T07:11:03;22.40;99.90
32107;DHT22;18622;51.998;10.440;2023-08-12T07:13:31;22.30;99.90
32107;DHT22;18622;51.998;10.440;2023-08-12T07:16:01;22.30;99.90
32107;DHT22;18622;51.998;10.440;2023-08-12T07:18:28;22.30;99.90
32107;DHT22;18622;51.998;10.440;2023-08-12T07:20:56;22.40;99.90
32107;DHT22;18622;51.998;10.440;2023-08-12T07:23:26;22.40;99.90
32107;DHT22;18622;51.998;10.440;2023-08-12T07:25:54;22.40;99.90
32107;DHT22;18622;51.998;10.440;2023-08-12T07:28:21;22.40;99.90
32107;DHT22;18622;51.998;10.440;2023-08-12T07:30:49;22.40;99.90
32107;DHT22;18622;51.998;10.440;2023-08-12T07:33:19;22.30;99.90
32107;DHT22;18622;51.998;10.440;2023-08-12T07:35:48;22.30;99.90
32107;DHT22;18622;51.998;10.440;2023-08-12T07:38:16;22.30;99.90
32107;DHT22;18622;51.998;10.440;2023-08-12T07:40:43;22.30;99.90
32107;DHT22;18622;51.998;10.440;2023-08-12T07:43:11;22.30;99.90
32107;DHT22;18622;51.998;10.440;2023-08-12T07:45:39;22.30;99.90
32107;DHT22;18622;51.998;10.440;2023-08-12T07:48:07;22.30;99.90
32107;DHT22;18622;51.998;10.440;2023-08-12T07:50:35;22.30;99.90
32107;DHT22;18622;51.998;10.440;2023-08-12T07:53:03;22.30;99.90
32107;DHT22;18622;51.998;10.440;2023-08-12T07:55:31;22.30;99.90
32107;DHT22;18622;51.998;10.440;2023-08-12T07:57:58;22.30;99.90
32107;DHT22;18622;51.998;10.440;2023-08-12T08:00:26;22.30;99.90
32107;DHT22;18622;51.998;10.440;2023-08-12T08:02:54;22.30;99.90
32107;DHT22;18622;51.998;10.440;2023-08-12T08:05:22;22.40;99.90
32107;DHT22;18622;51.998;10.440;2023-08-12T08:07:49;22.40;99.90
32107;DHT22;18622;51.998;10.440;2023-08-12T08:10:17;22.40;99.90
32107;DHT22;18622;51.998;10.440;2023-08-12T08:12:45;22.50;99.90
32107;DHT22;18622;51.998;10.440;2023-08-12T08:15:13;22.50;99.90
32107;DHT22;18622;51.998;10.440;2023-08-12T08:17:41;22.50;99.90
32107;DHT22;18622;51.998;10.440;2023-08-12T08:20:09;22.50;99.90
32107;DHT22;18622;51.998;10.440;2023-08-12T08:22:37;22.50;99.90
32107;DHT22;18622;51.998;10.440;2023-08-12T08:25:06;22.60;99.90
32107;DHT22;18622;51.998;10.440;2023-08-12T08:27:34;22.50;99.90
32107;DHT22;18622;51.998;10.440;2023-08-12T08:30:01;22.50;99.90
32107;DHT22;18622;51.998;10.440;2023-08-12T08:32:30;22.50;99.90
32107;DHT22;18622;51.998;10.440;2023-08-12T08:34:58;22.50;99.90
32107;DHT22;18622;51.998;10.440;2023-08-12T08:37:26;22.50;99.90
32107;DHT22;18622;51.998;10.440;2023-08-12T08:39:53;22.50;99.90
32107;DHT22;18622;51.998;10.440;2023-08-12T08:42:21;22.60;99.90
32107;DHT22;18622;51.998;10.440;2023-08-12T08:44:52;22.70;99.90
32107;DHT22;18622;51.998;10.440;2023-08-12T08:47:19;22.80;99.90
32107;DHT22;18622;51.998;10.440;2023-08-12T08:49:49;22.90;99.90
32107;DHT22;18622;51.998;10.440;2023-08-12T08:52:18;22.90;99.90
32107;DHT22;18622;51.998;10.440;2023-08-12T08:54:46;23.00;99.90
32107;DHT22;18622;51.998;10.440;2023-08-12T08:57:14;23.10;99.90
32107;DHT22;18622;51.998;10.440;2023-08-12T08:59:42;23.10;99.90
32107;DHT22;18622;51.998;10.440;2023-08-12T09:02:20;23.30;99.90
32107;DHT22;18622;51.998;10.440;2023-08-12T09:04:43;23.40;99.90
32107;DHT22;18622;51.998;10.440;2023-08-12T09:07:12;23.60;99.90
32107;DHT22;18622;51.998;10.440;2023-08-12T09:09:44;23.70;99.90
32107;DHT22;18622;51.998;10.440;2023-08-12T09:12:15;23.80;99.90
32107;DHT22;18622;51.998;10.440;2023-08-12T09:14:44;23.80;99.90
32107;DHT22;18622;51.998;10.440;2023-08-12T09:17:11;24.00;99.90
32107;DHT22;18622;51.998;10.440;2023-08-12T09:19:39;24.30;99.90
32107;DHT22;18622;51.998;10.440;2023-08-12T09:22:07;24.60;99.90
32107;DHT22;18622;51.998;10.440;2023-08-12T09:24:38;24.90;99.90
32107;DHT22;18622;51.998;10.440;2023-08-12T09:27:06;25.40;99.90
32107;DHT22;18622;51.998;10.440;2023-08-12T09:29:35;25.90;99.90
32107;DHT22;18622;51.998;10.440;2023-08-12T09:32:10;26.30;99.90
32107;DHT22;18622;51.998;10.440;2023-08-12T09:34:50;26.70;99.90
32107;DHT22;18622;51.998;10.440;2023-08-12T09:37:19;27.20;99.90
32107;DHT22;18622;51.998;10.440;2023-08-12T09:39:48;27.60;99.90
32107;DHT22;18622;51.998;10.440;2023-08-12T09:42:16;28.10;99.90
32107;DHT22;18622;51.998;10.440;2023-08-12T09:44:44;28.80;99.90
32107;DHT22;18622;51.998;10.440;2023-08-12T09:47:13;29.60;99.40
32107;DHT22;18622;51.998;10.440;2023-08-12T09:49:41;30.30;97.20
32107;DHT22;18622;51.998;10.440;2023-08-12T09:52:09;30.50;96.90
32107;DHT22;18622;51.998;10.440;2023-08-12T09:54:37;31.00;95.40
32107;DHT22;18622;51.998;10.440;2023-08-12T09:57:08;31.90;92.10
32107;DHT22;18622;51.998;10.440;2023-08-12T09:59:35;32.60;91.40
32107;DHT22;18622;51.998;10.440;2023-08-12T10:02:04;33.40;88.10
32107;DHT22;18622;51.998;10.440;2023-08-12T10:04:41;33.90;89.00
32107;DHT22;18622;51.998;10.440;2023-08-12T10:07:12;34.30;89.10
32107;DHT22;18622;51.998;10.440;2023-08-12T10:09:42;34.80;86.40
32107;DHT22;18622;51.998;10.440;2023-08-12T10:12:10;35.50;81.30
32107;DHT22;18622;51.998;10.440;2023-08-12T10:14:39;36.20;75.10
32107;DHT22;18622;51.998;10.440;2023-08-12T10:17:06;36.70;75.50
32107;DHT22;18622;51.998;10.440;2023-08-12T10:19:36;36.70;73.10
32107;DHT22;18622;51.998;10.440;2023-08-12T10:22:04;36.60;72.70
32107;DHT22;18622;51.998;10.440;2023-08-12T10:24:34;36.60;70.60
32107;DHT22;18622;51.998;10.440;2023-08-12T10:27:02;36.40;68.20
32107;DHT22;18622;51.998;10.440;2023-08-12T10:29:30;35.80;70.20
32107;DHT22;18622;51.998;10.440;2023-08-12T10:31:57;35.20;70.60
32107;DHT22;18622;51.998;10.440;2023-08-12T10:34:27;34.40;69.80
32107;DHT22;18622;51.998;10.440;2023-08-12T10:36:56;33.60;69.20
32107;DHT22;18622;51.998;10.440;2023-08-12T10:39:25;32.60;70.60
32107;DHT22;18622;51.998;10.440;2023-08-12T10:41:56;32.00;73.40
32107;DHT22;18622;51.998;10.440;2023-08-12T10:44:39;31.80;71.80
32107;DHT22;18622;51.998;10.440;2023-08-12T10:46:58;31.60;72.10
32107;DHT22;18622;51.998;10.440;2023-08-12T10:49:26;31.10;72.60
32107;DHT22;18622;51.998;10.440;2023-08-12T10:51:54;30.70;75.00
32107;DHT22;18622;51.998;10.440;2023-08-12T10:54:26;30.50;73.80
32107;DHT22;18622;51.998;10.440;2023-08-12T10:57:07;30.40;76.60
32107;DHT22;18622;51.998;10.440;2023-08-12T11:02:26;30.60;75.90
32107;DHT22;18622;51.998;10.440;2023-08-12T11:05:10;30.80;76.20
32107;DHT22;18622;51.998;10.440;2023-08-12T11:07:40;31.10;75.80
32107;DHT22;18622;51.998;10.440;2023-08-12T11:10:20;31.50;74.20
32107;DHT22;18622;51.998;10.440;2023-08-12T11:12:56;32.20;73.40
32107;DHT22;18622;51.998;10.440;2023-08-12T11:15:43;33.40;70.70
32107;DHT22;18622;51.998;10.440;2023-08-12T11:18:13;34.50;69.20
32107;DHT22;18622;51.998;10.440;2023-08-12T11:20:39;35.70;64.70
32107;DHT22;18622;51.998;10.440;2023-08-12T11:23:08;35.70;63.60
32107;DHT22;18622;51.998;10.440;2023-08-12T11:25:38;35.50;64.30
32107;DHT22;18622;51.998;10.440;2023-08-12T11:28:07;35.80;63.30
32107;DHT22;18622;51.998;10.440;2023-08-12T11:30:35;36.50;62.40
32107;DHT22;18622;51.998;10.440;2023-08-12T11:33:03;37.10;60.80
32107;DHT22;18622;51.998;10.440;2023-08-12T11:35:31;37.00;59.50
32107;DHT22;18622;51.998;10.440;2023-08-12T11:37:59;36.40;60.40
32107;DHT22;18622;51.998;10.440;2023-08-12T11:40:28;36.10;60.80
32107;DHT22;18622;51.998;10.440;2023-08-12T11:42:55;36.30;61.20
32107;DHT22;18622;51.998;10.440;2023-08-12T11:45:24;36.90;60.00
32107;DHT22;18622;51.998;10.440;2023-08-12T11:47:53;37.20;59.50
32107;DHT22;18622;51.998;10.440;2023-08-12T11:50:22;37.80;57.70
32107;DHT22;18622;51.998;10.440;2023-08-12T11:52:51;38.20;55.90
32107;DHT22;18622;51.998;10.440;2023-08-12T11:55:19;38.20;56.20
32107;DHT22;18622;51.998;10.440;2023-08-12T11:57:47;38.20;55.70
32107;DHT22;18622;51.998;10.440;2023-08-12T12:00:15;38.20;55.20
32107;DHT22;18622;51.998;10.440;2023-08-12T12:02:55;38.00;54.80
32107;DHT22;18622;51.998;10.440;2023-08-12T12:05:29;37.90;55.40
32107;DHT22;18622;51.998;10.440;2023-08-12T12:07:53;38.00;54.80
32107;DHT22;18622;51.998;10.440;2023-08-12T12:10:31;38.20;54.30
32107;DHT22;18622;51.998;10.440;2023-08-12T12:13:01;38.20;54.20
32107;DHT22;18622;51.998;10.440;2023-08-12T12:15:30;38.50;53.50
32107;DHT22;18622;51.998;10.440;2023-08-12T12:17:58;38.70;53.20
32107;DHT22;18622;51.998;10.440;2023-08-12T12:20:26;38.80;54.40
32107;DHT22;18622;51.998;10.440;2023-08-12T12:22:55;39.00;53.00
32107;DHT22;18622;51.998;10.440;2023-08-12T12:25:22;38.30;54.30
32107;DHT22;18622;51.998;10.440;2023-08-12T12:27:50;37.60;54.00
32107;DHT22;18622;51.998;10.440;2023-08-12T12:30:20;36.70;55.30
32107;DHT22;18622;51.998;10.440;2023-08-12T12:32:47;35.80;56.70
32107;DHT22;18622;51.998;10.440;2023-08-12T12:35:15;35.10;58.70
32107;DHT22;18622;51.998;10.440;2023-08-12T12:37:43;35.00;59.00
32107;DHT22;18622;51.998;10.440;2023-08-12T12:40:11;35.80;59.10
32107;DHT22;18622;51.998;10.440;2023-08-12T12:42:39;37.10;56.40
32107;DHT22;18622;51.998;10.440;2023-08-12T12:45:07;38.40;55.50
32107;DHT22;18622;51.998;10.440;2023-08-12T12:47:35;39.70;52.10
32107;DHT22;18622;51.998;10.440;2023-08-12T12:50:03;40.00;51.70
32107;DHT22;18622;51.998;10.440;2023-08-12T12:52:31;40.00;51.40
32107;DHT22;18622;51.998;10.440;2023-08-12T12:54:58;40.20;50.80
32107;DHT22;18622;51.998;10.440;2023-08-12T12:57:27;39.80;51.00
32107;DHT22;18622;51.998;10.440;2023-08-12T12:59:54;39.30;51.70
32107;DHT22;18622;51.998;10.440;2023-08-12T13:02:22;38.30;53.70
32107;DHT22;18622;51.998;10.440;2023-08-12T13:04:49;37.10;55.50
32107;DHT22;18622;51.998;10.440;2023-08-12T13:07:17;36.10;56.60
32107;DHT22;18622;51.998;10.440;2023-08-12T13:09:45;35.40;58.10
32107;DHT22;18622;51.998;10.440;2023-08-12T13:12:13;34.70;59.50
32107;DHT22;18622;51.998;10.440;2023-08-12T13:14:41;34.30;61.60
32107;DHT22;18622;51.998;10.440;2023-08-12T13:17:08;34.10;61.50
32107;DHT22;18622;51.998;10.440;2023-08-12T13:19:36;33.60;62.00
32107;DHT22;18622;51.998;10.440;2023-08-12T13:22:04;33.10;63.00
32107;DHT22;18622;51.998;10.440;2023-08-12T13:24:32;32.70;64.50
32107;DHT22;18622;51.998;10.440;2023-08-12T13:26:59;32.50;64.10
32107;DHT22;18622;51.998;10.440;2023-08-12T13:29:27;32.20;65.00
32107;DHT22;18622;51.998;10.440;2023-08-12T13:31:57;32.10;65.70
32107;DHT22;18622;51.998;10.440;2023-08-12T13:34:24;31.90;65.60
32107;DHT22;18622;51.998;10.440;2023-08-12T13:36:52;31.90;65.80
32107;DHT22;18622;51.998;10.440;2023-08-12T13:39:20;31.80;65.60
32107;DHT22;18622;51.998;10.440;2023-08-12T13:41:48;31.80;66.60
32107;DHT22;18622;51.998;10.440;2023-08-12T13:44:16;31.90;67.40
32107;DHT22;18622;51.998;10.440;2023-08-12T13:46:44;31.90;66.70
32107;DHT22;18622;51.998;10.440;2023-08-12T13:49:12;32.00;66.00
32107;DHT22;18622;51.998;10.440;2023-08-12T13:51:40;32.00;66.10
32107;DHT22;18622;51.998;10.440;2023-08-12T13:54:07;32.10;65.60
32107;DHT22;18622;51.998;10.440;2023-08-12T13:56:35;32.00;66.70
32107;DHT22;18622;51.998;10.440;2023-08-12T13:59:03;32.10;66.30
32107;DHT22;18622;51.998;10.440;2023-08-12T14:01:31;32.00;66.10
32107;DHT22;18622;51.998;10.440;2023-08-12T14:03:59;32.00;66.70
32107;DHT22;18622;51.998;10.440;2023-08-12T14:06:27;32.00;66.70
32107;DHT22;18622;51.998;10.440;2023-08-12T14:08:55;32.20;66.90
32107;DHT22;18622;51.998;10.440;2023-08-12T14:11:22;32.80;66.00
32107;DHT22;18622;51.998;10.440;2023-08-12T14:13:50;33.40;64.90
32107;DHT22;18622;51.998;10.440;2023-08-12T14:16:18;33.50;63.50
32107;DHT22;18622;51.998;10.440;2023-08-12T14:18:46;33.40;63.50
32107;DHT22;18622;51.998;10.440;2023-08-12T14:21:14;33.10;63.70
32107;DHT22;18622;51.998;10.440;2023-08-12T14:23:42;32.70;64.70
32107;DHT22;18622;51.998;10.440;2023-08-12T14:26:09;32.50;66.70
32107;DHT22;18622;51.998;10.440;2023-08-12T14:28:37;32.40;65.70
32107;DHT22;18622;51.998;10.440;2023-08-12T14:31:05;32.30;65.30
32107;DHT22;18622;51.998;10.440;2023-08-12T14:33:33;31.90;66.00
32107;DHT22;18622;51.998;10.440;2023-08-12T14:36:01;31.60;67.20
32107;DHT22;18622;51.998;10.440;2023-08-12T14:38:28;31.30;67.40
32107;DHT22;18622;51.998;10.440;2023-08-12T14:40:56;31.00;68.50
32107;DHT22;18622;51.998;10.440;2023-08-12T14:43:24;30.90;69.40
32107;DHT22;18622;51.998;10.440;2023-08-12T14:45:52;30.90;69.20
32107;DHT22;18622;51.998;10.440;2023-08-12T14:48:20;31.00;68.40
32107;DHT22;18622;51.998;10.440;2023-08-12T14:50:47;31.00;68.80
32107;DHT22;18622;51.998;10.440;2023-08-12T14:53:17;31.20;69.10
32107;DHT22;18622;51.998;10.440;2023-08-12T14:55:45;31.60;68.80
32107;DHT22;18622;51.998;10.440;2023-08-12T14:58:13;32.10;68.30
32107;DHT22;18622;51.998;10.440;2023-08-12T15:00:40;32.60;67.10
32107;DHT22;18622;51.998;10.440;2023-08-12T15:03:08;33.00;65.70
32107;DHT22;18622;51.998;10.440;2023-08-12T15:05:38;33.30;64.60
32107;DHT22;18622;51.998;10.440;2023-08-12T15:08:06;33.40;64.30
32107;DHT22;18622;51.998;10.440;2023-08-12T15:10:34;33.50;63.50
32107;DHT22;18622;51.998;10.440;2023-08-12T15:13:01;33.90;63.50
32107;DHT22;18622;51.998;10.440;2023-08-12T15:15:29;34.40;63.10
32107;DHT22;18622;51.998;10.440;2023-08-12T15:17:57;34.60;62.20
32107;DHT22;18622;51.998;10.440;2023-08-12T15:20:25;34.40;62.30
32107;DHT22;18622;51.998;10.440;2023-08-12T15:22:53;33.90;62.30
32107;DHT22;18622;51.998;10.440;2023-08-12T15:25:21;33.70;63.90
32107;DHT22;18622;51.998;10.440;2023-08-12T15:27:48;33.90;63.30
32107;DHT22;18622;51.998;10.440;2023-08-12T15:30:16;34.10;62.30
32107;DHT22;18622;51.998;10.440;2023-08-12T15:32:44;34.60;62.20
32107;DHT22;18622;51.998;10.440;2023-08-12T15:35:12;35.50;60.00
32107;DHT22;18622;51.998;10.440;2023-08-12T15:37:40;36.30;59.00
32107;DHT22;18622;51.998;10.440;2023-08-12T15:40:08;36.20;57.40
32107;DHT22;18622;51.998;10.440;2023-08-12T15:42:36;35.00;58.80
32107;DHT22;18622;51.998;10.440;2023-08-12T15:47:33;33.00;62.10
32107;DHT22;18622;51.998;10.440;2023-08-12T15:50:01;32.30;63.40
32107;DHT22;18622;51.998;10.440;2023-08-12T15:52:29;31.60;64.90
32107;DHT22;18622;51.998;10.440;2023-08-12T15:54:59;31.00;66.80
32107;DHT22;18622;51.998;10.440;2023-08-12T15:57:27;30.50;67.60
32107;DHT22;18622;51.998;10.440;2023-08-12T15:59:54;30.00;68.70
32107;DHT22;18622;51.998;10.440;2023-08-12T16:02:22;29.60;69.60
32107;DHT22;18622;51.998;10.440;2023-08-12T16:04:50;29.10;70.90
32107;DHT22;18622;51.998;10.440;2023-08-12T16:07:18;28.60;72.00
32107;DHT22;18622;51.998;10.440;2023-08-12T16:09:46;28.10;73.90
32107;DHT22;18622;51.998;10.440;2023-08-12T16:12:13;27.70;75.40
32107;DHT22;18622;51.998;10.440;2023-08-12T16:14:42;27.70;76.40
32107;DHT22;18622;51.998;10.440;2023-08-12T16:17:09;28.10;76.90
32107;DHT22;18622;51.998;10.440;2023-08-12T16:19:37;28.80;76.30
32107;DHT22;18622;51.998;10.440;2023-08-12T16:22:05;29.80;74.20
32107;DHT22;18622;51.998;10.440;2023-08-12T16:24:33;30.50;72.90
32107;DHT22;18622;51.998;10.440;2023-08-12T16:27:01;31.20;71.30
32107;DHT22;18622;51.998;10.440;2023-08-12T16:29:29;32.10;70.10
32107;DHT22;18622;51.998;10.440;2023-08-12T16:31:57;33.20;69.10
32107;DHT22;18622;51.998;10.440;2023-08-12T16:34:25;33.20;67.20
32107;DHT22;18622;51.998;10.440;2023-08-12T16:36:53;33.40;69.10
32107;DHT22;18622;51.998;10.440;2023-08-12T16:39:21;34.00;67.40
32107;DHT22;18622;51.998;10.440;2023-08-12T16:41:48;34.00;66.40
32107;DHT22;18622;51.998;10.440;2023-08-12T16:44:16;34.20;67.10
32107;DHT22;18622;51.998;10.440;2023-08-12T16:46:44;34.40;65.70
32107;DHT22;18622;51.998;10.440;2023-08-12T16:49:11;34.00;64.40
32107;DHT22;18622;51.998;10.440;2023-08-12T16:51:39;33.10;65.20
32107;DHT22;18622;51.998;10.440;2023-08-12T16:54:07;32.10;66.90
32107;DHT22;18622;51.998;10.440;2023-08-12T16:56:35;31.10;69.00
32107;DHT22;18622;51.998;10.440;2023-08-12T16:59:03;30.20;71.40
32107;DHT22;18622;51.998;10.440;2023-08-12T17:01:31;29.40;73.50
32107;DHT22;18622;51.998;10.440;2023-08-12T17:03:59;29.10;75.60
32107;DHT22;18622;51.998;10.440;2023-08-12T17:06:28;28.90;76.90
32107;DHT22;18622;51.998;10.440;2023-08-12T17:08:56;28.50;78.30
32107;DHT22;18622;51.998;10.440;2023-08-12T17:11:23;28.00;81.40
32107;DHT22;18622;51.998;10.440;2023-08-12T17:13:51;27.60;83.40
32107;DHT22;18622;51.998;10.440;2023-08-12T17:16:19;27.30;84.70
32107;DHT22;18622;51.998;10.440;2023-08-12T17:18:47;27.00;86.50
32107;DHT22;18622;51.998;10.440;2023-08-12T17:21:15;26.80;87.20
32107;DHT22;18622;51.998;10.440;2023-08-12T17:23:42;26.80;88.90
32107;DHT22;18622;51.998;10.440;2023-08-12T17:26:10;26.80;89.50
32107;DHT22;18622;51.998;10.440;2023-08-12T17:28:38;26.90;90.00
32107;DHT22;18622;51.998;10.440;2023-08-12T17:31:06;26.90;90.10
32107;DHT22;18622;51.998;10.440;2023-08-12T17:33:35;26.80;90.10
32107;DHT22;18622;51.998;10.440;2023-08-12T17:36:03;26.80;90.60
32107;DHT22;18622;51.998;10.440;2023-08-12T17:38:31;26.50;90.80
32107;DHT22;18622;51.998;10.440;2023-08-12T17:40:58;26.20;91.60
32107;DHT22;18622;51.998;10.440;2023-08-12T17:43:26;25.90;92.60
32107;DHT22;18622;51.998;10.440;2023-08-12T17:45:54;25.60;93.40
32107;DHT22;18622;51.998;10.440;2023-08-12T17:48:22;25.50;94.30
32107;DHT22;18622;51.998;10.440;2023-08-12T17:50:50;25.30;94.80
32107;DHT22;18622;51.998;10.440;2023-08-12T17:53:18;25.20;95.70
32107;DHT22;18622;51.998;10.440;2023-08-12T17:55:46;25.10;96.60
32107;DHT22;18622;51.998;10.440;2023-08-12T17:58:13;25.00;97.20
32107;DHT22;18622;51.998;10.440;2023-08-12T18:00:41;24.80;98.00
32107;DHT22;18622;51.998;10.440;2023-08-12T18:03:09;24.70;98.50
32107;DHT22;18622;51.998;10.440;2023-08-12T18:05:37;24.60;99.20
32107;DHT22;18622;51.998;10.440;2023-08-12T18:08:05;24.50;99.80
32107;DHT22;18622;51.998;10.440;2023-08-12T18:10:33;24.50;99.90
32107;DHT22;18622;51.998;10.440;2023-08-12T18:13:01;24.40;99.90
32107;DHT22;18622;51.998;10.440;2023-08-12T18:15:28;24.30;99.90
32107;DHT22;18622;51.998;10.440;2023-08-12T18:20:34;24.10;99.90
32107;DHT22;18622;51.998;10.440;2023-08-12T18:23:01;24.00;99.90
32107;DHT22;18622;51.998;10.440;2023-08-12T18:25:30;23.90;99.90
32107;DHT22;18622;51.998;10.440;2023-08-12T18:27:58;23.90;99.90
32107;DHT22;18622;51.998;10.440;2023-08-12T18:30:25;23.90;99.90
32107;DHT22;18622;51.998;10.440;2023-08-12T18:32:53;23.90;99.90
32107;DHT22;18622;51.998;10.440;2023-08-12T18:35:21;23.90;99.90
32107;DHT22;18622;51.998;10.440;2023-08-12T18:37:49;23.80;99.90
32107;DHT22;18622;51.998;10.440;2023-08-12T18:40:17;23.80;99.90
32107;DHT22;18622;51.998;10.440;2023-08-12T18:42:44;23.70;99.90
32107;DHT22;18622;51.998;10.440;2023-08-12T18:45:12;23.70;99.90
32107;DHT22;18622;51.998;10.440;2023-08-12T18:47:40;23.60;99.90
32107;DHT22;18622;51.998;10.440;2023-08-12T18:50:08;23.60;99.90
32107;DHT22;18622;51.998;10.440;2023-08-12T18:52:37;23.50;99.90
32107;DHT22;18622;51.998;10.440;2023-08-12T18:55:05;23.40;99.90
32107;DHT22;18622;51.998;10.440;2023-08-12T18:57:34;23.30;99.90
32107;DHT22;18622;51.998;10.440;2023-08-12T19:00:01;23.20;99.90